Airfield :
LOGIN :

Register | Disclaimer

   EN    FR    IT 

 










Legend :    VFR   Marginal VFR   IFR   Intensive IFR   Very Intensive IFR
Visi :
Ceiling :
>= 8 km
>= 3000ft
5 to 8 km
1000 to 3000 ft
1500m to 5 km
500 to 1000 ft
800 to 1500m
200 to 500 ft
< 800m
< 200 ft
Symbols :   Thunderstorms  Fog  Heavy snow  Heavy precipitations  Wind > 20 kt
SIGMETs :     Misc.  Thunderstorms  Icing  Turbulence  Mountain Waves  Volcanic Ashes







- Airport Elevation : 485 ft
- IATA code : QSA


LELL - Sabadell

CURRENT METAR :
  • 231930Z AUTO 19003KT 150V220 9999 BKN060 12/03 Q1012

EXPIRED METARs :
  • 231900Z AUTO 19004KT 160V230 9999 NCD 12/03 Q1011
  • 231830Z AUTO 20005KT 170V260 9999 NCD 12/03 Q1011
  • 231800Z 19005KT 160V230 9999 FEW055 13/03 Q1010
  • 231730Z 17011KT 140V210 9999 FEW055 SCT070 13/03 Q1010 WS ALL RWY
  • 231700Z 17013KT 140V200 9999 FEW055 SCT070 14/03 Q1010 WS ALL RWY

TAF TAF LELL
Valid from the 23 at 15:00 until the 24 at 15:00 UTC


231400Z 2315/2415 21010KT 9999 FEW040 TX15/2414Z TN05/2406Z
BECMG 2320/2322 VRB04KT
TEMPO 2409/2415 4000 SHRA BKN012 SCT020TCU
No reported NOTAMs for that airfield.
2 SIGMETs reported for the Barcelona FIR (LECB) :
 
Severe turbulence
LECB SIGMET 2 VALID 232000/232400 LEVA
LECB BARCELONA FIR SEV TURB FCST WI N4230 E003 - N3850 E00130 - N3930 W00110 - N4250 E00002 FL180/230 STNR NC=
Severe turbulence
LECB SIGMET 1 VALID 231626/232000 LEVA
LECB BARCELONA FIR SEV TURB FCST WI N3650 W00150 - N3650 W001 - N4230 E00220 - N43 E001 FL180/220 STNR NC=



MET'MAP, your aeronautical weather chart ! - Copyright ORBIFLY December 2007 - Disclaimer

ORBIFLY MET'MAP TEAM :

Programming & Development : Alexandra Zaïnal
Concept & Development : Baudouin d'Aumeries
Co-Development & Prog : Marc-Olivier Méhu
Technical & hardware support : Manuel Goepfert

Contact : metmap@orbifly.com




SOURCES & CREDITS :

   NOAA